Time;durP1;ratioP1;P1;durP2;ratioP2;P2;SDS_P1;SDS_P2;PMS_P1;PMS_P2;Temp;Humidity;BMP_temperature;BMP_pressure;BME280_temperature;BME280_humidity;BME280_pressure;Samples;Min_cycle;Max_cycle;Signal;HPM_P1;HPM_P2
2023/04/19 00:01:48;;;;;;;2.67;1.48;;;16.20;64.80;;;;;;6155921;23;20005;-68
2023/04/19 00:04:14;;;;;;;4.07;1.40;;;16.20;64.90;;;;;;6155791;23;20010;-68
2023/04/19 00:06:41;;;;;;;2.30;1.50;;;16.20;65.10;;;;;;6155250;23;20024;-68
2023/04/19 00:09:07;;;;;;;2.80;1.52;;;16.20;65.40;;;;;;6155623;23;20002;-68
2023/04/19 00:11:33;;;;;;;2.22;1.73;;;16.10;65.90;;;;;;6155599;23;20018;-68
2023/04/19 00:13:59;;;;;;;2.88;1.65;;;16.10;66.10;;;;;;6155453;23;20005;-68
2023/04/19 00:16:25;;;;;;;3.60;1.88;;;16.10;66.30;;;;;;6155760;23;20021;-68
2023/04/19 00:18:51;;;;;;;3.92;1.65;;;16.00;66.30;;;;;;6155629;23;20012;-68
2023/04/19 00:21:16;;;;;;;1.90;1.73;;;15.90;66.50;;;;;;6155830;23;20005;-67
2023/04/19 00:23:42;;;;;;;3.33;1.80;;;15.90;66.90;;;;;;6155273;23;20008;-68
2023/04/19 00:26:10;;;;;;;2.83;1.92;;;15.90;66.50;;;;;;6155450;23;19998;-68
2023/04/19 00:28:36;;;;;;;2.33;1.65;;;15.80;66.60;;;;;;6155664;23;20001;-68
2023/04/19 00:31:02;;;;;;;2.70;1.70;;;15.80;67.30;;;;;;6128862;23;20017;-67
2023/04/19 00:33:27;;;;;;;2.92;1.95;;;15.80;67.30;;;;;;6155160;23;20002;-68
2023/04/19 00:35:53;;;;;;;2.35;1.73;;;15.80;67.20;;;;;;6129515;23;20009;-67
2023/04/19 00:38:19;;;;;;;2.35;1.67;;;15.80;67.60;;;;;;6155601;23;19998;-67
2023/04/19 00:40:45;;;;;;;3.25;2.00;;;15.80;67.60;;;;;;6155205;23;20328;-68
2023/04/19 00:43:11;;;;;;;2.83;2.08;;;15.80;67.50;;;;;;6155307;23;20323;-68
2023/04/19 00:45:37;;;;;;;2.53;2.00;;;15.70;67.70;;;;;;6155105;23;20085;-67
2023/04/19 00:48:03;;;;;;;4.15;1.90;;;15.60;68.00;;;;;;6155327;23;20331;-67
2023/04/19 00:50:29;;;;;;;3.88;2.00;;;15.70;68.60;;;;;;6155255;23;20017;-68
2023/04/19 00:52:56;;;;;;;2.05;1.60;;;15.70;68.70;;;;;;6155442;23;20025;-68
2023/04/19 00:55:22;;;;;;;3.03;1.90;;;15.60;68.90;;;;;;6155381;23;20068;-68
2023/04/19 00:57:50;;;;;;;2.33;1.70;;;15.60;69.10;;;;;;6153885;23;20003;-68
2023/04/19 01:00:16;;;;;;;3.90;2.05;;;15.60;69.60;;;;;;6151707;23;20005;-67
2023/04/19 01:02:42;;;;;;;3.30;1.70;;;15.60;69.60;;;;;;6152110;23;20057;-68
2023/04/19 01:05:08;;;;;;;2.10;1.60;;;15.60;69.60;;;;;;6153785;23;20013;-68
2023/04/19 01:07:34;;;;;;;7.03;1.85;;;15.60;69.50;;;;;;6154987;23;20006;-68
2023/04/19 01:10:00;;;;;;;8.82;1.92;;;15.60;69.40;;;;;;6154946;23;20328;-68
2023/04/19 01:12:25;;;;;;;13.13;2.50;;;15.70;69.50;;;;;;6155343;23;19997;-68
2023/04/19 01:14:51;;;;;;;5.45;1.70;;;15.60;69.50;;;;;;6154814;23;20009;-68
2023/04/19 01:17:18;;;;;;;8.15;1.58;;;15.60;69.70;;;;;;6155123;23;20004;-68
2023/04/19 01:19:44;;;;;;;2.22;1.67;;;15.60;69.80;;;;;;6154912;23;19998;-68
2023/04/19 01:22:21;;;;;;;4.07;1.88;;;15.60;69.70;;;;;;6154565;23;20006;-68
2023/04/19 01:24:47;;;;;;;3.13;2.10;;;15.70;69.70;;;;;;6155222;23;20036;-68
2023/04/19 01:27:15;;;;;;;2.70;1.77;;;15.70;69.60;;;;;;6155260;23;20009;-68
2023/04/19 01:29:41;;;;;;;2.38;1.70;;;15.70;69.80;;;;;;6154606;23;20092;-68
2023/04/19 01:32:06;;;;;;;3.83;1.90;;;15.70;69.70;;;;;;6154527;23;20025;-68
2023/04/19 01:34:32;;;;;;;2.17;1.60;;;15.60;69.40;;;;;;6155470;23;20451;-68
2023/04/19 01:36:58;;;;;;;2.65;1.52;;;15.60;69.40;;;;;;6154866;23;20347;-68
2023/04/19 01:39:26;;;;;;;2.50;1.63;;;15.60;69.40;;;;;;6154770;23;20052;-68
2023/04/19 01:41:51;;;;;;;2.33;1.60;;;15.60;69.60;;;;;;6155130;23;20005;-67
2023/04/19 01:44:17;;;;;;;3.10;1.70;;;15.60;69.80;;;;;;6156750;23;20057;-68
2023/04/19 01:46:43;;;;;;;1.85;1.48;;;15.60;70.00;;;;;;6157234;23;20029;-67
2023/04/19 01:49:09;;;;;;;2.90;1.48;;;15.60;69.80;;;;;;6157218;23;20073;-68
2023/04/19 01:51:35;;;;;;;4.20;1.65;;;15.60;69.70;;;;;;6156721;23;20022;-67
2023/04/19 01:54:01;;;;;;;2.63;1.40;;;15.60;69.70;;;;;;6156818;23;20030;-68
2023/04/19 01:56:27;;;;;;;3.63;1.52;;;15.60;70.30;;;;;;6156897;23;20001;-68
2023/04/19 01:58:52;;;;;;;2.33;1.40;;;15.60;69.80;;;;;;6156725;23;20009;-68
2023/04/19 02:01:18;;;;;;;3.10;1.70;;;15.60;70.10;;;;;;6156688;23;20006;-68
2023/04/19 02:03:45;;;;;;;3.03;1.73;;;15.60;70.40;;;;;;6156962;23;20072;-68
2023/04/19 02:06:11;;;;;;;2.17;1.70;;;15.60;70.50;;;;;;6156492;23;20092;-68
2023/04/19 02:08:38;;;;;;;2.05;1.80;;;15.60;70.40;;;;;;6156852;23;20008;-68
2023/04/19 02:11:14;;;;;;;5.40;1.60;;;15.60;70.70;;;;;;6156575;23;20037;-68
2023/04/19 02:13:40;;;;;;;2.28;1.52;;;15.60;71.40;;;;;;6156748;23;19997;-67
2023/04/19 02:16:07;;;;;;;3.28;1.70;;;15.50;72.40;;;;;;6156753;23;20005;-68
2023/04/19 02:18:40;;;;;;;1.95;1.60;;;15.50;73.10;;;;;;6156906;23;19997;-68
2023/04/19 02:21:07;;;;;;;2.38;1.80;;;15.50;73.30;;;;;;6156828;23;20009;-68
2023/04/19 02:23:34;;;;;;;3.05;1.63;;;15.40;73.40;;;;;;6156808;23;19998;-68
2023/04/19 02:26:02;;;;;;;4.10;1.80;;;15.50;73.70;;;;;;6156426;23;20515;-68
2023/04/19 02:28:29;;;;;;;2.30;1.38;;;15.50;73.80;;;;;;6156518;23;20080;-67
2023/04/19 02:30:55;;;;;;;3.95;1.80;;;15.50;73.70;;;;;;6156393;23;20088;-68
2023/04/19 02:33:21;;;;;;;1.85;1.52;;;15.50;73.40;;;;;;6156714;23;20040;-67
2023/04/19 02:35:47;;;;;;;2.42;1.55;;;15.50;73.00;;;;;;6156296;23;20092;-68
2023/04/19 02:38:12;;;;;;;1.88;1.50;;;15.40;72.80;;;;;;6156352;23;20029;-67
2023/04/19 02:40:38;;;;;;;2.28;1.73;;;15.40;72.80;;;;;;6156854;23;20002;-68
2023/04/19 02:43:04;;;;;;;2.17;1.50;;;15.40;73.00;;;;;;6156582;23;20076;-67
2023/04/19 02:45:30;;;;;;;1.67;1.50;;;15.40;73.10;;;;;;6156422;23;20005;-68
2023/04/19 02:47:56;;;;;;;1.90;1.52;;;15.40;73.20;;;;;;6156484;23;19998;-67
2023/04/19 02:50:21;;;;;;;3.13;1.55;;;15.40;73.40;;;;;;6156038;23;20030;-66
2023/04/19 02:52:47;;;;;;;2.47;1.63;;;15.40;73.40;;;;;;6156407;23;19998;-67
2023/04/19 02:55:13;;;;;;;2.58;1.70;;;15.40;73.00;;;;;;6155990;23;20005;-67
2023/04/19 02:57:39;;;;;;;3.42;1.92;;;15.40;73.10;;;;;;6156614;23;20024;-67
2023/04/19 03:00:07;;;;;;;2.90;1.90;;;15.40;73.00;;;;;;6156260;23;20016;-68
2023/04/19 03:02:33;;;;;;;5.80;2.08;;;15.40;72.90;;;;;;6156280;23;19997;-68
2023/04/19 03:04:59;;;;;;;3.03;2.03;;;15.40;72.90;;;;;;6156077;23;20021;-67
2023/04/19 03:07:25;;;;;;;4.25;2.15;;;15.40;73.00;;;;;;6155901;23;20002;-67
2023/04/19 03:09:51;;;;;;;3.55;2.72;;;15.40;73.10;;;;;;6156181;23;20092;-67
2023/04/19 03:12:16;;;;;;;4.03;2.40;;;15.40;73.30;;;;;;6156088;23;20051;-67
2023/04/19 03:14:42;;;;;;;4.50;2.45;;;15.40;73.40;;;;;;6155987;23;20085;-68
2023/04/19 03:17:08;;;;;;;3.72;2.55;;;15.30;73.40;;;;;;6155680;23;20001;-67
2023/04/19 03:19:34;;;;;;;3.97;2.65;;;15.40;74.30;;;;;;6155838;23;20001;-68
2023/04/19 03:21:59;;;;;;;4.38;2.30;;;15.30;74.40;;;;;;6156287;23;20068;-68
2023/04/19 03:24:29;;;;;;;5.53;2.83;;;15.30;74.40;;;;;;6156226;23;20005;-67
2023/04/19 03:26:56;;;;;;;3.55;2.42;;;15.40;74.50;;;;;;6156242;23;19998;-67
2023/04/19 03:29:22;;;;;;;3.90;2.45;;;15.40;74.80;;;;;;6155974;23;20006;-67
2023/04/19 03:31:48;;;;;;;3.42;2.28;;;15.30;75.40;;;;;;6155743;23;20467;-67
2023/04/19 03:34:14;;;;;;;3.65;2.17;;;15.30;75.40;;;;;;6129774;23;20029;-68
2023/04/19 03:36:41;;;;;;;3.08;2.38;;;15.30;75.30;;;;;;6156309;23;20001;-67
2023/04/19 03:39:06;;;;;;;5.82;2.50;;;15.30;75.10;;;;;;6156046;23;20017;-68
2023/04/19 03:41:32;;;;;;;4.63;2.20;;;15.30;75.40;;;;;;6155963;23;20006;-68
2023/04/19 03:43:58;;;;;;;4.10;1.90;;;15.20;75.70;;;;;;6156301;23;20339;-67
2023/04/19 03:46:24;;;;;;;3.88;2.20;;;15.20;76.20;;;;;;6155834;23;20040;-67
2023/04/19 03:48:51;;;;;;;3.20;2.35;;;15.10;76.60;;;;;;6155736;23;20333;-68
2023/04/19 03:51:17;;;;;;;3.90;2.72;;;15.10;76.90;;;;;;6155619;23;20033;-67
2023/04/19 03:53:42;;;;;;;4.50;2.88;;;15.10;76.90;;;;;;6155673;23;20332;-67
2023/04/19 03:56:08;;;;;;;4.60;2.67;;;15.00;76.40;;;;;;6155818;23;20001;-68
2023/04/19 03:58:34;;;;;;;5.82;2.97;;;14.90;76.50;;;;;;6155929;23;20006;-68
2023/04/19 04:01:00;;;;;;;5.88;3.40;;;14.80;76.80;;;;;;6155788;23;20017;-68
2023/04/19 04:03:26;;;;;;;5.53;3.47;;;14.80;77.10;;;;;;6155655;23;20009;-68
2023/04/19 04:05:52;;;;;;;6.57;3.70;;;14.90;77.40;;;;;;6155702;23;20013;-68
2023/04/19 04:08:17;;;;;;;12.50;3.20;;;14.90;77.20;;;;;;6155913;23;20084;-68
2023/04/19 04:10:43;;;;;;;5.70;3.50;;;14.90;77.00;;;;;;6155778;23;20010;-68
2023/04/19 04:13:09;;;;;;;4.75;2.95;;;14.90;77.10;;;;;;6155861;23;20072;-68
2023/04/19 04:15:35;;;;;;;4.40;3.15;;;15.00;77.20;;;;;;6155386;23;20053;-68
2023/04/19 04:18:01;;;;;;;7.13;3.50;;;15.00;77.10;;;;;;6155707;23;20031;-67
2023/04/19 04:20:26;;;;;;;5.70;3.17;;;14.90;76.90;;;;;;6155591;23;20006;-68
2023/04/19 04:22:52;;;;;;;6.82;3.38;;;14.80;77.20;;;;;;6129448;23;20029;-68
2023/04/19 04:25:18;;;;;;;8.95;3.17;;;14.80;77.40;;;;;;6155896;23;20055;-67
2023/04/19 04:27:44;;;;;;;6.53;3.63;;;14.80;77.20;;;;;;6155607;23;20137;-67
2023/04/19 04:30:11;;;;;;;5.32;3.08;;;14.80;77.70;;;;;;6155400;23;20013;-67
2023/04/19 04:32:37;;;;;;;4.25;2.80;;;14.80;78.40;;;;;;6155558;23;19998;-68
2023/04/19 04:35:06;;;;;;;5.93;2.78;;;14.80;78.70;;;;;;6155540;23;20006;-67
2023/04/19 04:37:35;;;;;;;3.67;2.40;;;14.80;78.80;;;;;;6155597;23;20039;-67
2023/04/19 04:40:05;;;;;;;3.63;2.70;;;14.80;78.50;;;;;;6155560;23;20424;-68
2023/04/19 04:42:31;;;;;;;5.88;3.40;;;14.80;78.30;;;;;;6155633;23;20061;-67
2023/04/19 04:44:57;;;;;;;5.10;2.60;;;14.80;78.70;;;;;;6155390;23;20006;-67
2023/04/19 04:47:23;;;;;;;4.45;2.63;;;14.90;78.60;;;;;;6155176;23;20033;-68
2023/04/19 04:49:49;;;;;;;11.02;2.80;;;14.80;78.50;;;;;;6155382;23;20010;-67
2023/04/19 04:52:16;;;;;;;5.72;2.83;;;14.80;78.10;;;;;;6155204;23;20017;-67
2023/04/19 04:54:42;;;;;;;7.68;3.35;;;14.80;78.10;;;;;;6155256;23;20436;-67
2023/04/19 04:57:08;;;;;;;8.15;3.40;;;14.70;78.10;;;;;;6155506;23;20035;-67
2023/04/19 04:59:33;;;;;;;8.82;3.85;;;14.70;78.60;;;;;;6155398;23;20028;-68
2023/04/19 05:01:59;;;;;;;6.15;3.40;;;14.70;79.60;;;;;;6155295;23;20002;-68
2023/04/19 05:04:25;;;;;;;6.80;3.17;;;14.70;79.70;;;;;;6155512;23;20417;-67
2023/04/19 05:06:51;;;;;;;11.20;4.30;;;14.70;79.60;;;;;;6155088;23;20001;-67
2023/04/19 05:09:16;;;;;;;7.43;3.30;;;14.60;79.70;;;;;;6155024;23;20005;-68
2023/04/19 05:11:42;;;;;;;5.68;3.70;;;14.60;80.30;;;;;;6155222;23;20084;-67
2023/04/19 05:14:08;;;;;;;7.35;3.78;;;14.70;80.60;;;;;;6154856;23;20455;-68
2023/04/19 05:16:33;;;;;;;7.25;4.25;;;14.70;80.10;;;;;;6155120;23;20012;-67
2023/04/19 05:18:59;;;;;;;6.22;3.90;;;14.70;80.10;;;;;;6155146;23;20004;-67
2023/04/19 05:21:25;;;;;;;8.77;4.30;;;14.70;80.70;;;;;;6155245;23;20010;-67
2023/04/19 05:23:52;;;;;;;7.10;4.25;;;14.70;80.90;;;;;;6155396;23;20002;-67
2023/04/19 05:26:18;;;;;;;7.25;4.20;;;14.70;81.10;;;;;;6155291;23;20089;-67
2023/04/19 05:28:44;;;;;;;8.45;4.25;;;14.70;81.00;;;;;;6155167;23;20353;-68
2023/04/19 05:31:11;;;;;;;7.18;4.18;;;14.70;81.40;;;;;;6154879;23;20013;-67
2023/04/19 05:33:37;;;;;;;7.38;3.80;;;14.70;81.70;;;;;;6129187;23;20006;-68
2023/04/19 05:36:03;;;;;;;6.22;3.65;;;14.70;81.70;;;;;;6155390;23;20002;-67
2023/04/19 05:38:28;;;;;;;7.15;3.90;;;14.70;81.20;;;;;;6155074;23;20009;-68
2023/04/19 05:40:54;;;;;;;8.32;3.60;;;14.70;80.40;;;;;;6155467;23;20017;-67
2023/04/19 05:43:20;;;;;;;10.02;3.88;;;14.70;80.30;;;;;;6155197;23;20005;-67
2023/04/19 05:45:46;;;;;;;10.52;4.03;;;14.70;81.10;;;;;;6154867;23;20005;-67
2023/04/19 05:48:12;;;;;;;10.35;3.45;;;14.70;81.10;;;;;;6154819;23;20008;-67
2023/04/19 05:50:38;;;;;;;7.00;3.35;;;14.70;81.10;;;;;;6154375;23;20017;-67
2023/04/19 05:53:04;;;;;;;10.95;3.72;;;14.70;81.40;;;;;;6150208;23;20060;-71
2023/04/19 05:55:30;;;;;;;11.63;3.75;;;14.70;81.70;;;;;;6154514;23;20010;-70
2023/04/19 05:57:57;;;;;;;10.52;3.65;;;14.80;81.60;;;;;;6154686;23;20004;-67
2023/04/19 06:00:23;;;;;;;9.57;3.20;;;14.80;80.80;;;;;;6154594;23;20443;-67
2023/04/19 06:02:49;;;;;;;17.05;3.78;;;14.80;80.70;;;;;;6155129;23;20002;-68
2023/04/19 06:05:15;;;;;;;22.73;4.78;;;14.80;80.90;;;;;;6154715;23;20001;-68
2023/04/19 06:07:41;;;;;;;30.27;4.78;;;14.80;81.40;;;;;;6154241;23;20005;-68
2023/04/19 06:10:07;;;;;;;22.10;4.03;;;14.80;81.30;;;;;;6154350;23;20074;-67
2023/04/19 06:12:33;;;;;;;17.00;3.85;;;14.80;81.20;;;;;;6154691;23;20012;-67
2023/04/19 06:14:58;;;;;;;29.13;4.35;;;14.70;81.20;;;;;;6154005;23;20384;-66
2023/04/19 06:17:24;;;;;;;21.90;4.10;;;14.80;81.50;;;;;;6154654;23;20006;-66
2023/04/19 06:19:51;;;;;;;17.42;3.90;;;14.80;81.70;;;;;;6155191;23;20005;-66
2023/04/19 06:22:17;;;;;;;25.33;4.05;;;14.80;81.70;;;;;;6155089;23;20001;-65
2023/04/19 06:24:46;;;;;;;21.90;3.83;;;14.80;81.50;;;;;;6155275;23;20002;-65
2023/04/19 06:27:14;;;;;;;22.90;3.67;;;14.80;81.90;;;;;;6154661;23;20004;-69
2023/04/19 06:29:40;;;;;;;24.00;3.83;;;14.80;81.50;;;;;;6155682;23;20003;-72
2023/04/19 06:32:06;;;;;;;20.70;4.03;;;14.80;81.80;;;;;;6156677;23;20114;-72
2023/04/19 06:34:32;;;;;;;16.58;4.32;;;14.80;81.70;;;;;;6156770;23;20436;-72
2023/04/19 06:36:57;;;;;;;23.42;4.85;;;14.80;81.20;;;;;;6156770;23;20002;-72
2023/04/19 06:39:23;;;;;;;24.75;4.25;;;14.80;81.10;;;;;;6156794;23;20009;-73
2023/04/19 06:41:49;;;;;;;16.33;4.40;;;14.80;80.80;;;;;;6156442;23;20005;-72
2023/04/19 06:44:15;;;;;;;10.23;4.28;;;14.90;81.30;;;;;;6156614;23;20025;-72
2023/04/19 06:46:40;;;;;;;9.23;4.35;;;14.90;81.00;;;;;;6156677;23;20077;-73
2023/04/19 06:49:06;;;;;;;14.95;4.00;;;14.90;80.70;;;;;;6156589;23;20100;-72
2023/04/19 06:51:33;;;;;;;11.15;3.92;;;15.00;80.60;;;;;;6156494;23;20018;-71
2023/04/19 06:53:58;;;;;;;17.77;4.35;;;14.90;80.70;;;;;;6156529;23;20021;-74
2023/04/19 06:56:44;;;;;;;19.20;3.58;;;15.00;80.50;;;;;;6156473;23;20002;-74
2023/04/19 06:59:11;;;;;;;10.85;3.80;;;15.10;80.40;;;;;;6156521;23;20105;-69
2023/04/19 07:01:38;;;;;;;9.32;3.05;;;15.10;80.40;;;;;;6156429;23;20068;-69
2023/04/19 07:04:03;;;;;;;6.80;3.38;;;15.20;80.10;;;;;;6156293;23;20002;-69
2023/04/19 07:06:29;;;;;;;11.90;3.55;;;15.20;80.20;;;;;;6156050;23;20504;-69
2023/04/19 07:08:55;;;;;;;6.93;3.40;;;15.30;80.30;;;;;;6156240;23;20081;-72
2023/04/19 07:11:21;;;;;;;7.43;3.00;;;15.30;80.40;;;;;;6156078;23;20014;-70
2023/04/19 07:13:46;;;;;;;10.93;3.65;;;15.30;80.80;;;;;;6156636;23;19997;-71
2023/04/19 07:16:13;;;;;;;14.38;2.95;;;15.40;80.20;;;;;;6156022;23;20006;-72
2023/04/19 07:18:39;;;;;;;7.43;2.70;;;15.50;80.30;;;;;;6156374;23;20502;-70
2023/04/19 07:21:05;;;;;;;11.13;2.95;;;15.50;79.80;;;;;;6156338;23;20005;-71
2023/04/19 07:23:31;;;;;;;8.45;2.30;;;15.60;79.30;;;;;;6156292;23;20006;-70
2023/04/19 07:25:56;;;;;;;9.85;3.08;;;15.60;78.50;;;;;;6156337;23;20017;-71
2023/04/19 07:28:22;;;;;;;5.78;2.17;;;15.70;78.40;;;;;;6155883;23;20379;-70
2023/04/19 07:30:48;;;;;;;9.30;2.10;;;15.80;78.20;;;;;;6155392;23;20020;-71
2023/04/19 07:33:13;;;;;;;3.50;1.40;;;15.80;77.40;;;;;;6156044;23;20001;-72
2023/04/19 07:35:39;;;;;;;5.20;1.92;;;15.90;75.90;;;;;;6155800;23;20001;-71
2023/04/19 07:38:05;;;;;;;4.55;1.70;;;16.00;74.90;;;;;;6155902;23;20029;-70
2023/04/19 07:40:30;;;;;;;6.97;1.45;;;16.00;74.10;;;;;;6156071;23;20002;-70
2023/04/19 07:42:56;;;;;;;8.32;1.80;;;16.10;73.70;;;;;;6156195;23;20002;-72
2023/04/19 07:45:22;;;;;;;7.25;1.70;;;16.20;72.20;;;;;;6156398;23;20033;-71
2023/04/19 07:47:48;;;;;;;2.67;1.42;;;16.20;70.80;;;;;;6156024;23;20005;-73
2023/04/19 07:50:14;;;;;;;2.30;1.30;;;16.30;70.60;;;;;;6155641;23;20017;-72
2023/04/19 07:52:40;;;;;;;3.22;1.10;;;16.30;70.30;;;;;;6155909;23;20440;-73
2023/04/19 07:55:06;;;;;;;4.45;1.30;;;16.40;70.80;;;;;;6156115;23;20008;-73
2023/04/19 07:57:34;;;;;;;3.35;1.45;;;16.50;69.50;;;;;;6156128;23;20001;-73
2023/04/19 08:00:00;;;;;;;8.68;1.27;;;16.50;67.90;;;;;;6156056;23;19998;-73
2023/04/19 08:02:26;;;;;;;6.90;1.75;;;16.50;68.20;;;;;;6155978;23;20028;-73
2023/04/19 08:04:52;;;;;;;4.88;1.27;;;16.60;68.30;;;;;;6156216;23;19998;-73
2023/04/19 08:07:18;;;;;;;9.85;2.47;;;16.60;68.60;;;;;;6155901;23;20005;-73
2023/04/19 08:09:44;;;;;;;6.30;1.17;;;16.70;67.60;;;;;;6155800;23;20380;-72
2023/04/19 08:12:09;;;;;;;2.50;1.30;;;16.70;68.00;;;;;;6155965;23;20010;-73
2023/04/19 08:14:37;;;;;;;9.85;2.03;;;16.80;68.60;;;;;;6155864;23;20002;-72
2023/04/19 08:17:03;;;;;;;7.10;1.50;;;16.80;69.10;;;;;;6129409;23;20336;-73
2023/04/19 08:19:29;;;;;;;4.80;1.58;;;16.90;69.10;;;;;;6155587;23;19997;-73
2023/04/19 08:21:56;;;;;;;3.00;1.25;;;16.90;68.10;;;;;;6156004;23;20009;-73
2023/04/19 08:24:21;;;;;;;6.80;1.75;;;17.00;68.20;;;;;;6129653;23;20122;-73
2023/04/19 08:26:52;;;;;;;4.80;1.95;;;17.00;67.70;;;;;;6155697;23;20040;-73
2023/04/19 08:29:19;;;;;;;3.25;1.38;;;17.00;68.30;;;;;;6155658;23;20016;-73
2023/04/19 08:31:45;;;;;;;2.85;1.10;;;17.00;68.00;;;;;;6155366;23;20024;-73
2023/04/19 08:34:11;;;;;;;2.53;0.95;;;17.10;67.00;;;;;;6155423;23;20009;-73
2023/04/19 08:36:37;;;;;;;2.13;1.30;;;17.10;65.80;;;;;;6129318;23;20440;-74
2023/04/19 08:39:03;;;;;;;8.65;1.38;;;17.10;65.00;;;;;;6155775;23;20428;-73
2023/04/19 08:41:31;;;;;;;2.78;1.00;;;17.10;65.90;;;;;;6155256;23;20085;-73
2023/04/19 08:43:58;;;;;;;1.98;0.93;;;17.10;65.70;;;;;;6155596;23;20024;-73
2023/04/19 08:46:25;;;;;;;2.88;0.85;;;17.10;65.30;;;;;;6155362;23;20392;-73
2023/04/19 08:48:52;;;;;;;2.60;1.48;;;17.20;63.60;;;;;;6155178;23;20005;-73
2023/04/19 08:51:18;;;;;;;2.75;1.08;;;17.20;64.30;;;;;;6140103;23;20028;-73
2023/04/19 08:53:44;;;;;;;4.47;1.35;;;17.20;64.60;;;;;;6154502;23;20009;-73
2023/04/19 08:56:11;;;;;;;4.43;1.48;;;17.20;64.30;;;;;;6155554;23;20012;-73
2023/04/19 08:58:37;;;;;;;3.92;1.40;;;17.10;63.40;;;;;;6155323;23;20002;-72
2023/04/19 09:01:07;;;;;;;4.82;1.73;;;17.20;64.00;;;;;;6155343;23;20309;-73
2023/04/19 09:03:33;;;;;;;2.08;1.13;;;17.20;64.20;;;;;;6155238;23;19997;-73
2023/04/19 09:06:00;;;;;;;3.90;1.08;;;17.20;64.00;;;;;;6155181;23;20009;-73
2023/04/19 09:08:28;;;;;;;2.92;1.75;;;17.20;63.50;;;;;;6153742;23;20006;-73
2023/04/19 09:10:58;;;;;;;1.98;1.13;;;17.30;64.20;;;;;;6155170;23;20043;-73
2023/04/19 09:13:25;;;;;;;2.22;1.17;;;17.30;64.20;;;;;;6155528;23;20073;-73
2023/04/19 09:15:52;;;;;;;5.32;1.40;;;17.30;63.70;;;;;;6155426;23;20159;-73
2023/04/19 09:18:18;;;;;;;3.50;1.55;;;17.40;63.80;;;;;;6155152;23;20454;-73
2023/04/19 09:20:45;;;;;;;3.50;1.10;;;17.40;63.00;;;;;;6155233;23;20080;-73
2023/04/19 09:23:14;;;;;;;3.42;1.20;;;17.50;62.30;;;;;;6155055;23;20001;-73
2023/04/19 09:25:52;;;;;;;3.42;1.27;;;17.50;61.50;;;;;;6155066;23;20055;-73
2023/04/19 09:28:18;;;;;;;1.75;1.10;;;17.60;60.80;;;;;;6155343;23;20032;-73
2023/04/19 09:30:43;;;;;;;3.95;1.25;;;17.60;60.20;;;;;;6155203;23;20013;-72
2023/04/19 09:33:09;;;;;;;2.20;1.35;;;17.70;60.30;;;;;;6155118;23;20372;-73
2023/04/19 09:35:48;;;;;;;4.18;1.30;;;17.70;60.40;;;;;;6155056;23;20372;-72
2023/04/19 09:38:15;;;;;;;3.50;1.08;;;17.80;61.20;;;;;;6154761;23;20442;-73
2023/04/19 09:40:41;;;;;;;3.55;1.20;;;17.90;61.00;;;;;;6154622;23;20428;-72
2023/04/19 09:43:08;;;;;;;2.05;1.08;;;17.90;57.90;;;;;;6153445;23;20433;-72
2023/04/19 09:45:44;;;;;;;4.03;1.20;;;18.00;58.70;;;;;;6155481;23;20025;-73
2023/04/19 09:48:12;;;;;;;1.77;1.13;;;18.00;59.60;;;;;;6154751;23;20001;-73
2023/04/19 09:50:54;;;;;;;2.20;0.80;;;18.10;58.90;;;;;;6154539;23;20348;-74
2023/04/19 09:53:20;;;;;;;;;;;18.20;58.40;;;;;;6155320;23;20012;-73
2023/04/19 09:55:46;;;;;;;1.92;1.02;;;18.20;58.50;;;;;;6154951;23;19912;-73
2023/04/19 09:58:13;;;;;;;4.10;1.00;;;18.30;58.40;;;;;;6155250;23;20002;-73
2023/04/19 10:00:41;;;;;;;2.65;1.10;;;18.30;57.80;;;;;;6154902;23;20004;-73
2023/04/19 10:03:08;;;;;;;1.75;0.88;;;18.30;58.50;;;;;;6155419;23;20432;-73
2023/04/19 10:05:38;;;;;;;2.17;1.00;;;18.30;58.70;;;;;;6156873;23;20424;-73
2023/04/19 10:08:06;;;;;;;1.50;0.88;;;18.30;58.70;;;;;;6156620;23;20005;-73
2023/04/19 10:10:32;;;;;;;1.45;0.90;;;18.40;57.20;;;;;;6156708;23;20009;-73
2023/04/19 10:13:00;;;;;;;4.68;1.02;;;18.40;57.40;;;;;;6156965;23;19998;-73
2023/04/19 10:15:26;;;;;;;3.58;0.90;;;18.40;58.00;;;;;;6157030;23;20010;-73
2023/04/19 10:17:52;;;;;;;2.42;0.90;;;18.40;58.00;;;;;;6156462;23;20072;-73
2023/04/19 10:20:23;;;;;;;5.50;1.02;;;18.50;58.70;;;;;;6157003;23;20115;-75
2023/04/19 10:22:50;;;;;;;4.80;1.23;;;18.50;59.40;;;;;;6156695;23;20431;-74
2023/04/19 10:25:16;;;;;;;3.20;1.00;;;18.60;58.10;;;;;;6156175;23;20002;-73
2023/04/19 10:27:45;;;;;;;2.78;1.13;;;18.60;58.50;;;;;;6155553;23;20393;-73
2023/04/19 10:30:31;;;;;;;3.60;1.20;;;18.70;57.80;;;;;;6155380;23;20012;-73
2023/04/19 10:32:59;;;;;;;1.13;1.00;;;18.80;58.20;;;;;;6155241;23;20013;-73
2023/04/19 10:35:30;;;;;;;6.05;1.00;;;18.80;58.40;;;;;;6155818;23;20014;-74
2023/04/19 10:38:06;;;;;;;1.63;0.90;;;18.90;58.70;;;;;;6155705;23;20076;-73
2023/04/19 10:40:59;;;;;;;1.88;1.20;;;18.90;58.70;;;;;;6155745;23;20424;-73
2023/04/19 10:43:35;;;;;;;1.50;1.08;;;19.00;58.40;;;;;;6154957;23;19998;-73
2023/04/19 10:46:28;;;;;;;1.88;1.00;;;19.00;58.60;;;;;;6155315;23;20375;-74
2023/04/19 10:48:59;;;;;;;1.95;1.10;;;19.00;57.20;;;;;;6121962;23;20013;-73
2023/04/19 10:51:38;;;;;;;1.48;1.13;;;19.00;56.90;;;;;;6155799;23;20028;-73
2023/04/19 10:54:35;;;;;;;6.45;1.52;;;19.10;58.20;;;;;;6154783;23;20008;-73
2023/04/19 10:57:04;;;;;;;3.63;1.70;;;19.10;59.90;;;;;;6137371;23;20056;-73
2023/04/19 10:59:41;;;;;;;4.28;2.00;;;19.20;60.00;;;;;;6156250;23;20024;-73
2023/04/19 11:02:23;;;;;;;6.57;1.60;;;19.20;60.10;;;;;;6156669;23;20005;-73
2023/04/19 11:04:52;;;;;;;4.88;2.35;;;19.20;59.30;;;;;;6156555;23;20020;-73
2023/04/19 11:07:20;;;;;;;4.22;2.00;;;19.20;58.90;;;;;;6156521;23;20010;-73
2023/04/19 11:09:47;;;;;;;4.13;2.50;;;19.20;59.50;;;;;;6156420;23;20017;-73
2023/04/19 11:12:14;;;;;;;4.05;2.40;;;19.20;60.30;;;;;;6155825;23;20013;-73
2023/04/19 11:14:41;;;;;;;5.03;2.42;;;19.20;60.90;;;;;;6155602;23;20092;-73
2023/04/19 11:17:36;;;;;;;5.20;1.77;;;19.20;58.70;;;;;;6155260;23;20005;-74
2023/04/19 11:20:09;;;;;;;2.88;1.90;;;19.30;59.60;;;;;;6153491;23;20443;-73
2023/04/19 11:22:40;;;;;;;3.47;1.90;;;19.30;60.00;;;;;;6156200;23;20009;-74
2023/04/19 11:25:13;;;;;;;3.20;2.13;;;19.40;60.60;;;;;;6155862;23;20002;-75
2023/04/19 11:27:40;;;;;;;4.20;1.80;;;19.50;58.20;;;;;;6155819;23;20455;-74
2023/04/19 11:30:18;;;;;;;2.97;1.77;;;19.60;59.70;;;;;;6155701;23;20009;-74
2023/04/19 11:32:48;;;;;;;3.47;1.77;;;19.70;59.20;;;;;;6156183;23;20029;-75
2023/04/19 11:35:17;;;;;;;3.28;1.63;;;19.90;57.60;;;;;;6156041;23;20010;-74
2023/04/19 11:37:42;;;;;;;1.77;1.33;;;20.10;57.10;;;;;;6156207;23;20375;-75
2023/04/19 11:40:13;;;;;;;7.93;1.80;;;20.20;56.80;;;;;;6156121;23;20001;-75
2023/04/19 11:42:39;;;;;;;2.75;1.63;;;20.40;57.90;;;;;;6156259;23;20440;-75
2023/04/19 11:45:05;;;;;;;2.72;1.25;;;20.60;54.60;;;;;;6155905;23;20008;-75
2023/04/19 11:47:32;;;;;;;2.80;1.20;;;20.80;55.60;;;;;;6155965;23;20006;-74
2023/04/19 11:50:31;;;;;;;3.92;1.50;;;20.80;54.40;;;;;;6155406;23;20432;-74
2023/04/19 11:52:57;;;;;;;2.00;1.10;;;20.90;55.20;;;;;;6156152;23;20005;-74
2023/04/19 11:55:23;;;;;;;3.08;1.30;;;20.80;52.80;;;;;;6156161;23;20001;-75
2023/04/19 11:57:49;;;;;;;2.60;1.25;;;20.70;51.10;;;;;;6156280;23;20033;-74
2023/04/19 12:00:28;;;;;;;1.70;1.10;;;20.60;52.00;;;;;;6156075;23;20009;-75
2023/04/19 12:02:54;;;;;;;2.17;1.00;;;20.50;52.20;;;;;;6129840;23;20344;-74
2023/04/19 12:05:20;;;;;;;2.90;1.00;;;20.50;51.80;;;;;;6129833;23;20470;-74
2023/04/19 12:08:07;;;;;;;1.50;1.00;;;20.40;52.30;;;;;;6155630;23;20073;-74
2023/04/19 12:10:33;;;;;;;3.05;1.50;;;20.30;51.50;;;;;;6155626;23;20021;-74
2023/04/19 12:12:59;;;;;;;3.78;1.17;;;20.30;52.90;;;;;;6155790;23;20354;-74
2023/04/19 12:15:45;;;;;;;1.33;0.88;;;20.40;53.90;;;;;;6155964;23;20025;-74
2023/04/19 12:18:11;;;;;;;4.32;1.08;;;20.40;52.30;;;;;;6155591;23;20424;-74
2023/04/19 12:20:42;;;;;;;1.83;0.98;;;20.40;52.30;;;;;;6155964;23;20333;-74
2023/04/19 12:23:10;;;;;;;4.68;1.10;;;20.40;53.00;;;;;;6155634;23;20005;-74
2023/04/19 12:25:35;;;;;;;2.08;1.10;;;20.30;51.90;;;;;;6155194;23;20001;-74
2023/04/19 12:28:03;;;;;;;3.05;1.05;;;20.30;51.90;;;;;;6155132;23;20019;-74
2023/04/19 12:30:28;;;;;;;1.55;1.02;;;20.20;52.40;;;;;;6155552;23;20037;-73
2023/04/19 12:32:54;;;;;;;2.58;1.15;;;20.00;52.40;;;;;;6155623;23;20001;-73
2023/04/19 12:35:29;;;;;;;1.92;1.25;;;19.90;54.60;;;;;;6155790;23;20001;-74
2023/04/19 12:37:57;;;;;;;2.55;1.23;;;19.80;56.10;;;;;;6155501;23;20409;-74
2023/04/19 12:40:24;;;;;;;3.40;1.23;;;19.60;57.90;;;;;;6155567;23;20002;-73
2023/04/19 12:42:51;;;;;;;3.78;1.30;;;19.50;60.50;;;;;;6155723;23;20059;-72
2023/04/19 12:45:17;;;;;;;5.95;1.30;;;19.40;61.10;;;;;;6155462;23;20008;-72
2023/04/19 12:47:45;;;;;;;2.38;1.13;;;19.30;61.60;;;;;;6155157;23;19997;-72